Time;durP1;ratioP1;P1;durP2;ratioP2;P2;SDS_P1;SDS_P2;PMS_P1;PMS_P2;Temp;Humidity;BMP_temperature;BMP_pressure;BME280_temperature;BME280_humidity;BME280_pressure;Samples;Min_cycle;Max_cycle;Signal;HPM_P1;HPM_P2
2022/03/27 00:00:47;;;;;;;171.93;69.97;;;4.10;99.90;;;;;;5054026;28;20029;-53
2022/03/27 00:03:13;;;;;;;156.13;63.08;;;4.00;99.90;;;;;;5054171;28;20033;-53
2022/03/27 00:05:39;;;;;;;147.93;61.90;;;4.00;99.90;;;;;;5054043;28;20040;-53
2022/03/27 00:08:05;;;;;;;155.55;64.00;;;4.00;99.90;;;;;;5053961;28;20467;-53
2022/03/27 00:11:23;;;;;;;177.65;70.65;;;4.00;99.90;;;;;;5054065;28;20382;-53
2022/03/27 00:13:17;;;;;;;177.75;71.63;;;3.80;99.90;;;;;;5053902;28;20057;-53
2022/03/27 00:15:43;;;;;;;159.95;65.82;;;3.80;99.90;;;;;;5053997;28;20391;-53
2022/03/27 00:18:09;;;;;;;175.55;69.75;;;3.70;99.90;;;;;;5053918;28;20036;-53
2022/03/27 00:20:35;;;;;;;147.45;64.63;;;3.70;99.90;;;;;;5053776;28;20037;-53
2022/03/27 00:23:01;;;;;;;153.80;62.70;;;3.60;99.90;;;;;;5053735;28;20017;-53
2022/03/27 00:25:27;;;;;;;135.07;58.83;;;3.60;99.90;;;;;;5054175;28;20104;-53
2022/03/27 00:27:53;;;;;;;145.18;60.72;;;3.50;99.90;;;;;;5053793;28;20542;-53
2022/03/27 00:30:19;;;;;;;151.55;63.42;;;3.50;99.90;;;;;;5053949;28;20060;-53
2022/03/27 00:32:45;;;;;;;146.45;64.35;;;3.60;99.90;;;;;;5053571;28;20108;-53
2022/03/27 00:35:11;;;;;;;143.82;60.85;;;3.70;99.90;;;;;;5053798;28;20056;-53
2022/03/27 00:37:37;;;;;;;144.35;59.42;;;3.70;99.90;;;;;;5053869;28;20450;-53
2022/03/27 00:40:04;;;;;;;151.88;63.47;;;3.60;99.90;;;;;;5053730;28;20140;-53
2022/03/27 00:42:30;;;;;;;133.20;58.65;;;3.50;99.90;;;;;;5057153;28;20036;-53
2022/03/27 00:44:56;;;;;;;148.00;64.13;;;3.50;99.90;;;;;;5057355;28;20531;-53
2022/03/27 00:47:22;;;;;;;143.05;60.97;;;3.50;99.90;;;;;;5057296;28;20021;-53
2022/03/27 00:49:48;;;;;;;147.30;62.35;;;3.40;99.90;;;;;;5057380;28;20039;-53
2022/03/27 00:52:14;;;;;;;139.50;61.35;;;3.30;99.90;;;;;;5057262;28;20024;-53
2022/03/27 00:54:40;;;;;;;133.82;57.88;;;3.20;99.90;;;;;;5057082;28;20043;-54
2022/03/27 00:57:07;;;;;;;124.90;55.03;;;3.10;99.90;;;;;;5057142;28;20276;-53
2022/03/27 00:59:33;;;;;;;186.15;65.57;;;3.20;99.90;;;;;;5057347;28;20060;-53
2022/03/27 01:02:01;;;;;;;164.80;64.97;;;3.20;99.90;;;;;;5057004;28;20462;-53
2022/03/27 01:04:27;;;;;;;145.98;58.90;;;3.20;99.90;;;;;;5056947;28;20021;-53
2022/03/27 01:06:53;;;;;;;126.55;56.08;;;3.20;99.90;;;;;;5057152;28;20551;-53
2022/03/27 01:09:37;;;;;;;124.38;53.63;;;3.20;99.90;;;;;;5056954;28;20647;-53
2022/03/27 01:12:15;;;;;;;126.78;53.40;;;3.10;99.90;;;;;;5056785;28;20047;-53
2022/03/27 01:14:42;;;;;;;126.32;51.97;;;3.00;99.90;;;;;;5056926;28;20498;-53
2022/03/27 01:17:09;;;;;;;123.72;53.05;;;2.90;99.90;;;;;;5056667;28;20036;-53
2022/03/27 01:19:47;;;;;;;118.15;53.10;;;2.90;99.90;;;;;;5056642;28;20082;-53
2022/03/27 01:22:14;;;;;;;133.25;55.00;;;2.90;99.90;;;;;;5056395;28;20360;-53
2022/03/27 01:24:40;;;;;;;132.70;53.88;;;2.90;99.90;;;;;;5056743;28;20039;-53
2022/03/27 01:27:07;;;;;;;119.45;51.38;;;2.90;99.90;;;;;;5056687;28;20378;-53
2022/03/27 01:29:34;;;;;;;145.10;62.20;;;2.80;99.90;;;;;;5056611;28;20425;-53
2022/03/27 01:32:00;;;;;;;144.15;60.20;;;2.80;99.90;;;;;;5056578;28;20025;-53
2022/03/27 01:34:27;;;;;;;141.82;59.03;;;2.80;99.90;;;;;;5056416;28;20020;-53
2022/03/27 01:36:53;;;;;;;129.10;56.25;;;2.70;99.90;;;;;;5056803;28;20037;-53
2022/03/27 01:39:19;;;;;;;123.30;54.15;;;2.80;99.90;;;;;;5056352;28;20033;-53
2022/03/27 01:41:45;;;;;;;112.15;52.03;;;2.90;99.90;;;;;;5056294;28;20375;-53
2022/03/27 01:44:14;;;;;;;107.93;49.83;;;2.90;99.90;;;;;;5056327;28;20033;-53
2022/03/27 01:46:41;;;;;;;116.30;50.65;;;2.90;99.90;;;;;;5056072;28;20025;-53
2022/03/27 01:49:10;;;;;;;116.25;50.72;;;2.80;99.90;;;;;;5056169;28;20505;-53
2022/03/27 01:51:37;;;;;;;118.93;53.28;;;2.70;99.90;;;;;;5056081;28;20024;-53
2022/03/27 01:54:04;;;;;;;118.03;52.13;;;2.70;99.90;;;;;;5055040;28;20033;-53
2022/03/27 01:56:30;;;;;;;115.18;51.15;;;2.70;99.90;;;;;;5056113;28;20045;-53
2022/03/27 01:58:56;;;;;;;106.22;48.53;;;2.60;99.90;;;;;;5055978;28;20021;-53
2022/03/27 02:01:23;;;;;;;107.85;46.63;;;2.50;99.90;;;;;;5055940;28;20064;-53
2022/03/27 02:03:50;;;;;;;105.93;46.97;;;2.40;99.90;;;;;;5056007;28;20112;-53
2022/03/27 02:06:17;;;;;;;104.43;45.72;;;2.50;99.90;;;;;;5055937;28;20021;-53
2022/03/27 02:08:44;;;;;;;101.72;45.10;;;2.40;99.90;;;;;;5055663;28;20031;-53
2022/03/27 02:11:10;;;;;;;96.28;44.58;;;2.50;99.90;;;;;;5056405;28;20079;-52
2022/03/27 02:13:36;;;;;;;95.80;42.85;;;2.50;99.90;;;;;;5055701;28;20049;-53
2022/03/27 02:16:03;;;;;;;107.05;45.30;;;2.50;99.90;;;;;;5055600;28;20021;-53
2022/03/27 02:18:30;;;;;;;104.50;43.67;;;2.40;99.90;;;;;;5055707;28;20017;-53
2022/03/27 02:20:58;;;;;;;100.10;43.47;;;2.40;99.90;;;;;;5055469;28;20025;-53
2022/03/27 02:23:24;;;;;;;89.65;41.90;;;2.40;99.90;;;;;;5055734;28;20036;-53
2022/03/27 02:25:51;;;;;;;92.28;43.08;;;2.40;99.90;;;;;;5055592;28;20025;-53
2022/03/27 02:28:17;;;;;;;90.30;41.40;;;2.30;99.90;;;;;;5055461;28;20047;-53
2022/03/27 02:30:44;;;;;;;90.32;42.53;;;2.30;99.90;;;;;;5055445;28;20036;-53
2022/03/27 02:33:10;;;;;;;89.68;42.38;;;2.30;99.90;;;;;;5055394;28;20040;-53
2022/03/27 02:35:36;;;;;;;92.78;42.45;;;2.30;99.90;;;;;;5055282;28;20041;-53
2022/03/27 02:38:06;;;;;;;90.05;41.45;;;2.30;99.90;;;;;;5055246;28;20036;-53
2022/03/27 02:40:37;;;;;;;87.07;42.40;;;2.20;99.90;;;;;;5055174;28;20043;-53
2022/03/27 02:43:04;;;;;;;;;;;2.20;99.90;;;;;;5055621;28;20033;-53
2022/03/27 02:45:30;;;;;;;99.38;45.75;;;2.10;99.90;;;;;;5055009;28;19955;-53
2022/03/27 02:47:57;;;;;;;92.10;43.30;;;2.20;99.90;;;;;;5055170;28;20090;-53
2022/03/27 02:50:24;;;;;;;91.80;44.33;;;2.20;99.90;;;;;;5055004;28;20028;-53
2022/03/27 02:52:51;;;;;;;102.30;44.85;;;2.30;99.90;;;;;;5055169;28;20044;-53
2022/03/27 02:55:18;;;;;;;99.80;45.45;;;2.40;99.90;;;;;;5054887;28;20069;-53
2022/03/27 02:57:44;;;;;;;102.07;44.85;;;2.30;99.90;;;;;;5054971;28;20543;-53
2022/03/27 03:00:10;;;;;;;98.65;45.25;;;2.20;99.90;;;;;;5054869;28;20128;-53
2022/03/27 03:02:36;;;;;;;102.43;45.42;;;2.20;99.90;;;;;;5054874;28;20032;-53
2022/03/27 03:05:04;;;;;;;98.25;44.17;;;2.20;99.90;;;;;;5054580;28;20029;-53
2022/03/27 03:07:33;;;;;;;90.35;40.83;;;2.30;99.90;;;;;;5054869;28;20076;-53
2022/03/27 03:10:01;;;;;;;101.82;44.22;;;2.20;99.90;;;;;;5054840;28;20387;-53
2022/03/27 03:12:27;;;;;;;102.32;44.58;;;2.20;99.90;;;;;;5054707;28;20016;-53
2022/03/27 03:14:55;;;;;;;88.38;40.90;;;2.10;99.90;;;;;;5054726;28;20108;-53
2022/03/27 03:17:22;;;;;;;77.88;37.60;;;2.00;99.90;;;;;;5054568;28;20052;-53
2022/03/27 03:19:48;;;;;;;93.00;40.67;;;2.00;99.90;;;;;;5054536;28;20102;-53
2022/03/27 03:22:15;;;;;;;85.80;38.40;;;2.00;99.90;;;;;;5054447;28;20028;-53
2022/03/27 03:24:41;;;;;;;83.72;39.03;;;1.90;99.90;;;;;;5054566;28;20379;-53
2022/03/27 03:27:07;;;;;;;80.78;39.55;;;1.90;99.90;;;;;;5054411;28;20028;-52
2022/03/27 03:29:33;;;;;;;82.93;38.33;;;1.90;99.90;;;;;;5054477;28;20029;-53
2022/03/27 03:31:59;;;;;;;80.47;36.75;;;1.90;99.90;;;;;;5054258;28;20344;-53
2022/03/27 03:34:25;;;;;;;86.20;40.55;;;1.90;99.90;;;;;;5054423;28;20051;-53
2022/03/27 03:36:51;;;;;;;95.90;42.60;;;1.90;99.90;;;;;;5054439;28;20451;-53
2022/03/27 03:39:17;;;;;;;92.60;42.38;;;1.90;99.90;;;;;;5054248;28;20025;-53
2022/03/27 03:41:43;;;;;;;98.32;45.60;;;1.80;99.90;;;;;;5054255;28;20036;-53
2022/03/27 03:44:09;;;;;;;92.28;41.92;;;1.80;99.90;;;;;;5054425;28;20029;-53
2022/03/27 03:46:35;;;;;;;93.55;41.50;;;1.80;99.90;;;;;;5054003;28;20025;-53
2022/03/27 03:49:01;;;;;;;91.13;41.88;;;1.80;99.90;;;;;;5054235;28;20029;-53
2022/03/27 03:51:27;;;;;;;79.97;35.85;;;1.70;99.90;;;;;;5054309;28;20134;-53
2022/03/27 03:53:52;;;;;;;86.43;38.60;;;1.70;99.90;;;;;;5054098;28;20060;-53
2022/03/27 03:56:18;;;;;;;84.88;36.28;;;1.70;99.90;;;;;;5054045;28;20037;-53
2022/03/27 03:58:44;;;;;;;81.38;36.25;;;1.60;99.90;;;;;;5054110;28;20037;-53
2022/03/27 04:01:10;;;;;;;85.07;38.42;;;1.70;99.90;;;;;;5053882;28;20037;-53
2022/03/27 04:03:36;;;;;;;84.22;39.08;;;1.80;99.90;;;;;;5054132;28;20029;-53
2022/03/27 04:06:02;;;;;;;86.60;39.50;;;1.80;99.90;;;;;;5054065;28;20534;-53
2022/03/27 04:08:28;;;;;;;89.32;40.00;;;1.90;99.90;;;;;;5054393;28;20032;-53
2022/03/27 04:10:54;;;;;;;85.18;39.55;;;1.90;99.90;;;;;;5053986;28;20036;-53
2022/03/27 04:13:21;;;;;;;78.78;37.83;;;1.80;99.90;;;;;;5054094;28;20498;-53
2022/03/27 04:15:47;;;;;;;74.57;34.60;;;1.70;99.90;;;;;;5054574;28;20021;-53
2022/03/27 04:18:13;;;;;;;76.88;35.13;;;1.80;99.90;;;;;;5057949;28;20440;-53
2022/03/27 04:20:41;;;;;;;68.03;33.35;;;1.80;99.90;;;;;;5057700;28;20041;-53
2022/03/27 04:23:07;;;;;;;78.38;34.58;;;1.80;99.90;;;;;;5057586;28;20028;-52
2022/03/27 04:25:33;;;;;;;105.47;44.33;;;1.80;99.90;;;;;;5057822;28;20024;-53
2022/03/27 04:28:05;;;;;;;85.25;39.42;;;1.80;99.90;;;;;;5057764;28;20031;-53
2022/03/27 04:30:31;;;;;;;83.78;38.60;;;1.90;99.90;;;;;;5057788;28;20495;-53
2022/03/27 04:32:57;;;;;;;76.05;34.65;;;1.90;99.90;;;;;;5057585;28;20094;-53
2022/03/27 04:35:23;;;;;;;69.13;32.22;;;1.90;99.90;;;;;;5057768;28;20126;-52
2022/03/27 04:37:49;;;;;;;66.80;29.80;;;1.80;99.90;;;;;;5057513;28;20021;-53
2022/03/27 04:40:15;;;;;;;65.25;30.67;;;1.80;99.90;;;;;;5057508;28;20055;-53
2022/03/27 04:42:42;;;;;;;69.28;31.25;;;1.70;99.90;;;;;;5057507;28;20430;-53
2022/03/27 04:45:09;;;;;;;67.75;31.80;;;1.70;99.90;;;;;;5057669;28;20149;-53
2022/03/27 04:47:35;;;;;;;58.63;29.15;;;1.70;99.90;;;;;;5057457;28;20079;-53
2022/03/27 04:50:02;;;;;;;66.22;32.20;;;1.80;99.90;;;;;;5057564;28;20486;-53
2022/03/27 04:52:28;;;;;;;72.97;33.58;;;1.90;99.90;;;;;;5057185;28;20028;-53
2022/03/27 04:54:54;;;;;;;88.15;37.72;;;1.90;99.90;;;;;;5057248;28;20032;-53
2022/03/27 04:57:21;;;;;;;88.40;37.65;;;1.90;99.90;;;;;;5057013;28;20433;-53
2022/03/27 04:59:48;;;;;;;83.05;36.63;;;2.00;99.90;;;;;;5055818;28;20032;-53
2022/03/27 05:02:15;;;;;;;88.22;36.25;;;2.10;99.90;;;;;;5057235;28;20032;-53
2022/03/27 05:04:41;;;;;;;69.53;31.70;;;2.10;99.90;;;;;;5057220;28;20036;-53
2022/03/27 05:07:07;;;;;;;67.05;30.35;;;2.20;99.90;;;;;;5057004;28;20029;-53
2022/03/27 05:09:33;;;;;;;78.93;31.83;;;2.20;99.90;;;;;;5056974;28;20498;-53
2022/03/27 05:12:00;;;;;;;65.32;29.35;;;2.30;99.90;;;;;;5056887;28;20053;-53
2022/03/27 05:14:26;;;;;;;68.45;30.98;;;2.20;99.90;;;;;;5057022;28;20039;-53
2022/03/27 05:16:51;;;;;;;65.93;31.92;;;2.20;99.90;;;;;;5056884;28;20029;-53
2022/03/27 05:19:17;;;;;;;71.10;32.00;;;2.30;99.90;;;;;;5056840;28;20029;-53
2022/03/27 05:21:43;;;;;;;85.82;33.65;;;2.50;99.90;;;;;;5056672;28;20029;-53
2022/03/27 05:24:09;;;;;;;94.35;37.13;;;2.50;99.90;;;;;;5057017;28;20532;-53
2022/03/27 05:26:36;;;;;;;102.50;38.80;;;2.60;99.90;;;;;;5056509;28;20471;-53
2022/03/27 05:29:08;;;;;;;83.18;34.63;;;2.50;99.90;;;;;;5056607;28;20029;-53
2022/03/27 05:31:34;;;;;;;80.55;33.38;;;2.70;99.90;;;;;;5056649;28;20087;-53
2022/03/27 05:34:00;;;;;;;73.38;32.55;;;2.80;99.90;;;;;;5056426;28;20378;-53
2022/03/27 05:36:26;;;;;;;68.57;30.85;;;2.80;99.90;;;;;;5056558;28;20036;-53
2022/03/27 05:38:52;;;;;;;69.05;33.67;;;2.80;99.90;;;;;;5056277;28;20033;-53
2022/03/27 05:41:18;;;;;;;83.10;36.92;;;3.00;99.90;;;;;;5056308;28;20041;-53
2022/03/27 05:43:44;;;;;;;81.25;37.00;;;3.30;99.90;;;;;;5056783;28;20045;-53
2022/03/27 05:46:10;;;;;;;87.95;40.17;;;3.50;99.90;;;;;;5056410;28;20163;-53
2022/03/27 05:48:36;;;;;;;77.78;38.63;;;3.70;99.90;;;;;;5056259;28;20025;-53
2022/03/27 05:51:02;;;;;;;84.47;37.70;;;3.90;99.90;;;;;;5056259;28;20035;-53
2022/03/27 05:53:29;;;;;;;109.78;46.40;;;4.20;99.90;;;;;;5056028;28;20041;-53
2022/03/27 05:55:57;;;;;;;100.93;42.45;;;4.40;99.90;;;;;;5056060;28;20056;-53
2022/03/27 05:58:23;;;;;;;103.15;41.38;;;4.60;99.90;;;;;;5055867;28;20383;-53
2022/03/27 06:00:51;;;;;;;114.63;48.63;;;4.70;99.90;;;;;;5056284;28;20095;-53
2022/03/27 06:03:17;;;;;;;83.88;40.50;;;4.90;99.90;;;;;;5056102;28;20059;-53
2022/03/27 06:05:43;;;;;;;83.60;39.70;;;5.10;99.90;;;;;;5056062;28;20052;-53
2022/03/27 06:08:09;;;;;;;87.40;39.72;;;5.30;99.90;;;;;;5055889;28;20060;-53
2022/03/27 06:10:38;;;;;;;93.15;40.85;;;5.40;99.90;;;;;;5055797;28;20387;-53
2022/03/27 06:13:04;;;;;;;84.15;41.10;;;5.70;99.90;;;;;;5055786;28;20024;-53
2022/03/27 06:15:31;;;;;;;88.13;41.05;;;5.80;99.90;;;;;;5055785;28;20040;-53
2022/03/27 06:17:58;;;;;;;89.72;40.25;;;5.90;99.90;;;;;;5055743;28;20036;-53
2022/03/27 06:20:27;;;;;;;84.18;41.15;;;6.10;99.90;;;;;;5055762;28;20104;-53
2022/03/27 06:22:53;;;;;;;88.25;39.45;;;6.40;99.90;;;;;;5055278;28;20036;-53
2022/03/27 06:25:24;;;;;;;86.40;42.70;;;6.70;99.90;;;;;;5055574;28;20029;-53
2022/03/27 06:27:50;;;;;;;96.75;44.95;;;6.90;99.90;;;;;;5055488;28;20032;-53
2022/03/27 06:30:19;;;;;;;91.03;44.42;;;7.10;99.40;;;;;;5055408;28;20506;-53
2022/03/27 06:32:46;;;;;;;110.57;46.88;;;7.30;99.90;;;;;;5055314;28;20036;-53
2022/03/27 06:35:13;;;;;;;92.43;45.88;;;7.60;99.50;;;;;;5055404;28;20106;-53
2022/03/27 06:37:40;;;;;;;100.70;47.53;;;8.00;99.30;;;;;;5055495;28;20463;-53
2022/03/27 06:40:08;;;;;;;106.03;48.13;;;8.30;97.80;;;;;;5054769;28;20029;-53
2022/03/27 06:42:35;;;;;;;105.60;49.80;;;8.50;96.70;;;;;;5055230;28;20732;-53
2022/03/27 06:45:03;;;;;;;133.48;56.00;;;8.40;96.40;;;;;;5055149;28;20025;-53
2022/03/27 06:47:29;;;;;;;116.68;53.40;;;8.60;96.00;;;;;;5055236;28;20021;-53
2022/03/27 06:49:56;;;;;;;110.75;54.38;;;8.80;96.40;;;;;;5055038;28;20035;-53
2022/03/27 06:52:24;;;;;;;138.65;61.92;;;9.30;96.10;;;;;;5054974;28;20482;-53
2022/03/27 06:54:50;;;;;;;136.48;61.42;;;9.70;94.10;;;;;;5054887;28;20093;-53
2022/03/27 06:57:16;;;;;;;155.95;69.88;;;10.00;93.90;;;;;;5054908;28;20048;-53
2022/03/27 07:05:12;;;;;;;137.32;64.47;;;10.70;93.00;;;;;;5054842;28;20032;-53
2022/03/27 07:07:39;;;;;;;125.18;60.22;;;11.10;88.50;;;;;;5055076;28;20021;-53
2022/03/27 07:10:05;;;;;;;114.82;57.30;;;11.40;83.50;;;;;;5054661;28;20397;-53
2022/03/27 07:12:31;;;;;;;118.00;52.80;;;11.60;86.10;;;;;;5054637;28;20540;-54
2022/03/27 07:14:57;;;;;;;94.97;46.97;;;12.00;78.70;;;;;;5054572;28;20028;-54
2022/03/27 07:17:23;;;;;;;93.90;46.05;;;12.40;76.50;;;;;;5054717;28;20394;-53
2022/03/27 07:19:49;;;;;;;101.93;46.22;;;12.80;69.00;;;;;;5054482;28;20041;-53
2022/03/27 07:22:15;;;;;;;100.93;43.95;;;12.80;69.00;;;;;;5054383;28;20021;-54
2022/03/27 07:24:42;;;;;;;73.47;38.85;;;13.10;59.90;;;;;;5054716;28;20035;-54
2022/03/27 07:27:08;;;;;;;72.88;37.85;;;13.50;56.00;;;;;;5054419;28;20433;-53
2022/03/27 07:29:38;;;;;;;74.97;36.50;;;13.60;55.70;;;;;;5054258;28;20468;-54
2022/03/27 07:32:08;;;;;;;59.95;31.13;;;14.00;54.80;;;;;;5054466;28;20020;-54
2022/03/27 07:34:35;;;;;;;63.93;34.27;;;14.30;50.00;;;;;;5054443;28;20057;-54
2022/03/27 07:37:03;;;;;;;65.40;33.65;;;14.30;48.30;;;;;;5054246;28;20391;-54
2022/03/27 07:39:29;;;;;;;63.78;35.20;;;14.50;47.50;;;;;;5054289;28;20387;-54
2022/03/27 07:41:55;;;;;;;63.97;34.85;;;15.00;46.30;;;;;;5054332;28;20462;-54
2022/03/27 07:44:22;;;;;;;78.60;39.45;;;15.20;45.30;;;;;;5054200;28;20029;-54
2022/03/27 07:46:49;;;;;;;73.38;40.00;;;15.30;45.60;;;;;;5054244;28;20056;-54
2022/03/27 07:49:16;;;;;;;71.78;38.30;;;15.30;44.30;;;;;;5054475;28;20033;-54
2022/03/27 07:51:43;;;;;;;79.10;38.85;;;15.60;43.90;;;;;;5056370;28;20096;-54
2022/03/27 07:54:09;;;;;;;74.85;38.03;;;15.70;43.40;;;;;;5058451;28;20025;-54
2022/03/27 07:56:36;;;;;;;91.45;40.90;;;16.30;41.60;;;;;;5058116;28;20410;-54
2022/03/27 07:59:02;;;;;;;94.60;40.67;;;16.50;42.20;;;;;;5058297;28;20029;-54
2022/03/27 08:01:28;;;;;;;88.32;40.50;;;17.00;40.70;;;;;;5058378;28;20029;-54
2022/03/27 08:03:56;;;;;;;84.10;36.95;;;17.30;39.20;;;;;;5058261;28;20490;-54
2022/03/27 08:06:25;;;;;;;89.78;36.17;;;17.50;39.10;;;;;;5058296;28;20046;-54
2022/03/27 08:08:51;;;;;;;87.35;37.88;;;17.40;38.90;;;;;;5058072;28;20032;-54
2022/03/27 08:11:17;;;;;;;71.18;34.20;;;17.70;38.40;;;;;;5057997;28;20108;-54
2022/03/27 08:13:43;;;;;;;80.40;34.35;;;18.00;36.40;;;;;;5058001;28;20029;-54
2022/03/27 08:16:09;;;;;;;106.07;34.78;;;18.20;36.10;;;;;;5058022;28;20407;-54
2022/03/27 08:18:36;;;;;;;68.13;32.85;;;18.60;35.00;;;;;;5057880;28;20033;-54
2022/03/27 08:21:02;;;;;;;65.70;33.15;;;18.90;34.90;;;;;;5057847;28;20029;-54
2022/03/27 08:23:28;;;;;;;54.13;29.25;;;18.70;33.40;;;;;;5057824;28;20017;-54
2022/03/27 08:28:39;;;;;;;45.75;26.23;;;19.00;32.50;;;;;;5057728;28;20028;-54
2022/03/27 08:31:05;;;;;;;55.05;30.35;;;19.20;32.20;;;;;;5057770;28;20064;-54
2022/03/27 08:33:31;;;;;;;65.13;32.35;;;19.90;33.70;;;;;;5057518;28;20048;-54
2022/03/27 08:35:58;;;;;;;61.85;27.80;;;20.00;31.30;;;;;;5058113;28;20029;-54
2022/03/27 08:38:24;;;;;;;41.47;21.75;;;19.80;31.10;;;;;;5057525;28;20033;-54
2022/03/27 08:40:53;;;;;;;40.45;21.25;;;20.10;29.60;;;;;;5057321;28;20029;-54
2022/03/27 08:43:19;;;;;;;55.05;24.27;;;20.30;31.00;;;;;;5057589;28;20111;-54
2022/03/27 08:45:45;;;;;;;46.42;22.13;;;20.70;29.00;;;;;;5057029;28;20028;-54
2022/03/27 08:48:12;;;;;;;44.15;22.50;;;20.60;28.50;;;;;;5057653;28;20027;-54
2022/03/27 08:50:49;;;;;;;50.00;23.95;;;21.00;28.90;;;;;;5057357;28;20033;-54
2022/03/27 08:53:37;;;;;;;41.72;22.65;;;20.80;28.70;;;;;;5057387;28;20075;-54
2022/03/27 08:56:08;;;;;;;47.13;23.48;;;20.80;28.50;;;;;;5057000;28;20126;-54
2022/03/27 08:58:35;;;;;;;;;;;20.80;28.60;;;;;;5057831;28;20025;-54
2022/03/27 09:01:03;;;;;;;45.25;23.83;;;21.10;29.30;;;;;;5057254;28;19999;-54
2022/03/27 09:03:30;;;;;;;39.38;23.52;;;21.80;28.70;;;;;;5056876;28;20052;-54
2022/03/27 09:05:57;;;;;;;41.83;22.35;;;21.70;28.20;;;;;;5057178;28;20025;-54
2022/03/27 09:08:24;;;;;;;34.08;20.80;;;21.80;28.70;;;;;;5057042;28;20029;-54
2022/03/27 09:10:49;;;;;;;41.72;20.23;;;22.60;27.50;;;;;;5057134;28;20095;-54
2022/03/27 09:13:17;;;;;;;42.78;20.40;;;22.50;26.30;;;;;;5056863;28;20029;-54
2022/03/27 09:15:44;;;;;;;38.42;22.13;;;22.40;25.90;;;;;;5056901;28;20037;-54
2022/03/27 09:18:12;;;;;;;45.05;23.08;;;21.90;27.00;;;;;;5057074;28;20234;-54
2022/03/27 09:20:44;;;;;;;39.38;23.17;;;22.00;27.40;;;;;;5055473;28;20098;-54
2022/03/27 09:23:28;;;;;;;45.50;24.30;;;22.50;27.50;;;;;;5056650;28;20033;-54
2022/03/27 09:26:04;;;;;;;47.08;23.58;;;23.30;27.60;;;;;;5056800;28;20436;-54
2022/03/27 09:28:39;;;;;;;43.85;24.05;;;23.60;25.80;;;;;;5056712;28;20017;-54
2022/03/27 09:31:14;;;;;;;42.80;25.02;;;23.60;26.00;;;;;;5056661;28;20433;-54
2022/03/27 09:34:00;;;;;;;44.72;23.70;;;24.00;25.30;;;;;;5056465;28;20085;-54
2022/03/27 09:36:40;;;;;;;52.08;24.65;;;24.20;25.10;;;;;;5056508;28;20035;-54
2022/03/27 09:39:19;;;;;;;43.38;24.55;;;24.00;25.40;;;;;;5056707;28;20036;-54
2022/03/27 09:41:47;;;;;;;41.17;23.90;;;24.50;24.60;;;;;;5056481;28;20021;-54
2022/03/27 09:44:17;;;;;;;55.25;24.83;;;24.40;24.40;;;;;;5056351;28;20149;-54
2022/03/27 09:46:54;;;;;;;;;;;24.40;24.00;;;;;;5056615;28;20029;-54
2022/03/27 09:49:30;;;;;;;50.08;27.75;;;24.40;24.40;;;;;;5056309;28;19935;-54
2022/03/27 09:52:10;;;;;;;46.40;24.83;;;23.90;24.10;;;;;;5056277;28;20087;-54
2022/03/27 09:54:55;;;;;;;41.42;25.05;;;23.90;24.80;;;;;;5056161;28;20037;-54
2022/03/27 09:57:36;;;;;;;42.63;23.05;;;23.80;25.20;;;;;;5055940;28;20045;-54
2022/03/27 10:00:13;;;;;;;45.00;24.38;;;23.80;24.30;;;;;;5055903;28;20037;-54
2022/03/27 10:02:40;;;;;;;45.05;23.50;;;23.60;23.90;;;;;;5055824;28;20037;-54
2022/03/27 10:05:08;;;;;;;44.15;22.80;;;23.60;24.00;;;;;;5056002;28;20546;-54
2022/03/27 10:07:42;;;;;;;41.92;22.65;;;23.10;24.40;;;;;;5055953;28;20027;-54
2022/03/27 10:10:13;;;;;;;40.25;21.90;;;23.70;25.10;;;;;;5055932;28;20032;-54
2022/03/27 10:12:42;;;;;;;39.45;22.60;;;24.00;24.80;;;;;;5055833;28;20082;-54
2022/03/27 10:15:14;;;;;;;36.30;20.00;;;24.10;24.10;;;;;;5055011;28;20498;-54
2022/03/27 10:17:45;;;;;;;39.05;22.08;;;24.30;23.90;;;;;;5055925;28;20040;-54
2022/03/27 10:20:16;;;;;;;41.00;21.48;;;24.50;24.60;;;;;;5055527;28;20041;-54
2022/03/27 10:22:46;;;;;;;33.70;20.05;;;24.80;24.00;;;;;;5055436;28;20395;-54
2022/03/27 10:25:16;;;;;;;39.47;21.27;;;25.10;22.70;;;;;;5055670;28;20067;-54
2022/03/27 10:27:44;;;;;;;50.88;22.17;;;25.10;22.50;;;;;;5055340;28;20746;-54
2022/03/27 10:30:12;;;;;;;39.42;20.00;;;25.20;21.60;;;;;;5055875;28;20406;-54
2022/03/27 10:32:40;;;;;;;38.50;20.48;;;25.00;21.50;;;;;;5055400;28;20056;-54
2022/03/27 10:35:25;;;;;;;38.28;20.42;;;25.50;23.00;;;;;;5055314;28;20506;-54
2022/03/27 10:38:11;;;;;;;42.28;21.02;;;25.90;22.10;;;;;;5055606;28;20031;-54
2022/03/27 10:40:45;;;;;;;45.67;20.92;;;26.60;22.00;;;;;;5055182;28;20031;-54
2022/03/27 10:43:36;;;;;;;36.03;19.67;;;26.70;21.40;;;;;;5055284;28;20534;-54
2022/03/27 10:46:16;;;;;;;36.63;20.35;;;25.90;21.50;;;;;;5055015;28;20028;-54
2022/03/27 10:48:44;;;;;;;39.33;22.63;;;25.50;21.40;;;;;;5054950;28;20029;-54
2022/03/27 10:51:26;;;;;;;44.80;21.33;;;25.80;21.30;;;;;;5055083;28;20501;-54
2022/03/27 10:54:10;;;;;;;37.90;20.98;;;25.80;21.70;;;;;;5035137;28;20395;-54
2022/03/27 10:56:51;;;;;;;41.90;20.23;;;26.60;22.20;;;;;;5034799;28;20376;-55
2022/03/27 10:59:20;;;;;;;33.97;20.08;;;26.70;20.90;;;;;;5034975;28;20045;-54
2022/03/27 11:01:53;;;;;;;32.75;21.08;;;26.20;20.40;;;;;;5034926;28;20069;-54
2022/03/27 11:04:35;;;;;;;35.50;20.20;;;26.10;21.40;;;;;;5034838;28;20036;-54
2022/03/27 11:07:16;;;;;;;36.08;22.80;;;26.30;22.10;;;;;;5035049;28;20104;-54
2022/03/27 11:09:46;;;;;;;39.53;21.70;;;26.10;20.90;;;;;;5034783;28;20470;-54
2022/03/27 11:12:25;;;;;;;46.35;23.15;;;26.10;21.30;;;;;;5035041;28;20025;-54
2022/03/27 11:14:53;;;;;;;45.13;23.00;;;25.10;21.10;;;;;;5034816;28;20091;-54
2022/03/27 11:17:46;;;;;;;41.00;22.90;;;24.80;21.70;;;;;;5034830;28;20044;-54
2022/03/27 11:20:33;;;;;;;46.20;26.20;;;25.50;22.00;;;;;;5034732;28;20029;-54
2022/03/27 11:23:02;;;;;;;42.88;24.83;;;25.60;21.80;;;;;;5042513;28;20116;-54
2022/03/27 11:25:36;;;;;;;44.95;25.52;;;25.10;22.10;;;;;;5054461;28;20392;-54
2022/03/27 11:28:08;;;;;;;40.35;24.10;;;25.50;22.50;;;;;;5054519;28;20032;-54
2022/03/27 11:30:37;;;;;;;40.83;24.70;;;25.10;22.10;;;;;;5054402;28;20060;-55
2022/03/27 11:33:13;;;;;;;35.70;23.00;;;25.20;23.20;;;;;;5054291;28;20041;-54
2022/03/27 11:35:41;;;;;;;38.97;22.73;;;25.60;22.70;;;;;;5054480;28;20029;-54
2022/03/27 11:38:25;;;;;;;45.25;23.65;;;25.90;22.60;;;;;;5054474;28;20024;-54
2022/03/27 11:40:51;;;;;;;38.97;22.90;;;26.30;21.80;;;;;;5054266;28;20115;-54
2022/03/27 11:43:34;;;;;;;40.58;23.52;;;26.90;22.30;;;;;;5054227;28;20025;-54
2022/03/27 11:46:02;;;;;;;45.65;24.17;;;27.20;21.90;;;;;;5054104;28;20115;-54
2022/03/27 11:48:28;;;;;;;40.75;25.52;;;27.00;21.60;;;;;;5054367;28;20071;-55
2022/03/27 11:50:55;;;;;;;38.85;23.38;;;27.40;21.90;;;;;;5054255;28;20431;-54
2022/03/27 11:53:32;;;;;;;42.22;19.92;;;26.90;21.00;;;;;;5054035;28;20025;-54
2022/03/27 11:56:08;;;;;;;36.33;19.15;;;26.00;21.20;;;;;;5054053;28;20061;-54
2022/03/27 11:58:36;;;;;;;27.85;16.38;;;25.30;21.30;;;;;;5054058;28;20071;-54
2022/03/27 12:01:04;;;;;;;30.48;18.05;;;25.30;21.80;;;;;;5054110;28;20032;-54
2022/03/27 12:03:30;;;;;;;33.70;19.42;;;25.50;21.40;;;;;;5054185;28;20479;-54
2022/03/27 12:06:09;;;;;;;41.25;24.80;;;25.60;21.70;;;;;;5054331;28;20087;-54
2022/03/27 12:08:39;;;;;;;37.85;22.90;;;25.60;21.40;;;;;;5054033;28;20129;-54
2022/03/27 12:11:06;;;;;;;40.72;25.00;;;25.40;21.60;;;;;;5054003;28;20025;-54
2022/03/27 12:13:36;;;;;;;39.40;23.70;;;25.20;21.20;;;;;;5053997;28;20029;-54
2022/03/27 12:16:02;;;;;;;39.63;24.08;;;25.20;21.20;;;;;;5054021;28;20083;-54
2022/03/27 12:18:29;;;;;;;38.38;23.48;;;25.30;22.10;;;;;;5054057;28;20024;-54
2022/03/27 12:20:56;;;;;;;36.58;20.80;;;25.90;22.00;;;;;;5053718;28;20029;-54
2022/03/27 12:23:31;;;;;;;33.72;19.92;;;26.20;22.00;;;;;;5054130;28;20021;-54
2022/03/27 12:26:00;;;;;;;27.15;17.00;;;26.20;21.70;;;;;;5054014;28;20044;-54
2022/03/27 12:31:25;;;;;;;25.83;15.52;;;25.50;21.40;;;;;;5053912;28;20036;-54
2022/03/27 12:33:52;;;;;;;25.55;14.98;;;25.60;21.90;;;;;;5053764;28;20070;-54
2022/03/27 12:36:18;;;;;;;36.08;17.50;;;25.80;22.20;;;;;;5053910;28;20033;-54
2022/03/27 12:38:45;;;;;;;31.17;16.42;;;26.00;21.70;;;;;;5057630;28;20391;-54
2022/03/27 12:41:11;;;;;;;32.47;16.55;;;26.30;21.90;;;;;;5057398;28;20033;-54
2022/03/27 12:43:42;;;;;;;30.73;16.38;;;26.90;22.30;;;;;;5057486;28;20021;-54
2022/03/27 12:46:23;;;;;;;25.95;15.60;;;27.10;21.20;;;;;;5057383;28;20037;-54
2022/03/27 12:49:06;;;;;;;29.40;16.27;;;27.30;20.80;;;;;;5057478;28;20051;-54